Open Full Screen Window  High Contrast Mode
Wind Gusting 15 knots
10
August 04, 2015 3:53 PM EDT
Weather Information
Wind Direction
  270 °
Wind Speed
  10 kt (12 mph)
Wind Gust
  15 kt (17 mph)
Altimeter
29.90 in
Visibility
10 SM
Temperature
24° C
75° F
Dewpoint
13° C
55° F
Humidity
50%
1hr Rain Fall
00.00 in.
24hr Rain Fall
00.00 in.
Sky Condition
Broken @ 8,000 ft
Broken @ 6,000 ft
Broken @ 4,800 ft
VFR

METAR KIKW 041953Z AUTO 27010G15KT 10SM BKN048 BKN060 BKN080 24/13 A2990 RMK AO2 T02360128

*Background is not an actual portrayal of the airport.